N11816 -KGWS
Flight info
| Callsign | N11816 |
|---|---|
| Flight time | N/A |
| Altitude | VFR |
| Route | |
| Aircraft | C152/L-VGD/C |
Departure
| Time | N/A |
|---|---|
| Airport | - |
Arrival
| Time | 2026-04-22 01:22 |
|---|---|
| Airport | Glenwood Springs Municipal Airport (KGWS) |
| Time | Latitude | Longitude | Altitude | Speed | Heading |
|---|---|---|---|---|---|
| 2026-04-22 01:04 | 39.31576 | -107.01490 | 8586 ft | 95 kts | 289° |
| 2026-04-22 01:04 | 39.31880 | -107.02245 | 8653 ft | 97 kts | 295° |
| 2026-04-22 01:04 | 39.32283 | -107.02963 | 8712 ft | 101 kts | 302° |
| 2026-04-22 01:05 | 39.32730 | -107.03678 | 8770 ft | 103 kts | 303° |
| 2026-04-22 01:05 | 39.33212 | -107.04343 | 8895 ft | 102 kts | 305° |
| 2026-04-22 01:05 | 39.33709 | -107.04990 | 8780 ft | 101 kts | 306° |
| 2026-04-22 01:05 | 39.34206 | -107.05614 | 8876 ft | 100 kts | 307° |
| 2026-04-22 01:06 | 39.34706 | -107.06240 | 8903 ft | 100 kts | 307° |
| 2026-04-22 01:06 | 39.35196 | -107.06830 | 8900 ft | 94 kts | 307° |
| 2026-04-22 01:06 | 39.35672 | -107.07405 | 8934 ft | 94 kts | 307° |
| 2026-04-22 01:06 | 39.36148 | -107.07994 | 8957 ft | 96 kts | 307° |
| 2026-04-22 01:07 | 39.36635 | -107.08605 | 8967 ft | 99 kts | 307° |
| 2026-04-22 01:07 | 39.37120 | -107.09238 | 8978 ft | 99 kts | 308° |
| 2026-04-22 01:07 | 39.37596 | -107.09846 | 9051 ft | 92 kts | 306° |
| 2026-04-22 01:07 | 39.38036 | -107.10405 | 9041 ft | 86 kts | 306° |
| 2026-04-22 01:08 | 39.38454 | -107.10932 | 9107 ft | 84 kts | 308° |
| 2026-04-22 01:08 | 39.38887 | -107.11470 | 9128 ft | 88 kts | 310° |
| 2026-04-22 01:08 | 39.39333 | -107.12033 | 9150 ft | 90 kts | 306° |
| 2026-04-22 01:08 | 39.39780 | -107.12575 | 9237 ft | 86 kts | 311° |
| 2026-04-22 01:09 | 39.40219 | -107.13124 | 9190 ft | 91 kts | 306° |
| 2026-04-22 01:09 | 39.40681 | -107.13722 | 9155 ft | 96 kts | 308° |
| 2026-04-22 01:09 | 39.41155 | -107.14300 | 9238 ft | 93 kts | 304° |
| 2026-04-22 01:09 | 39.41606 | -107.14933 | 9338 ft | 96 kts | 306° |
| 2026-04-22 01:10 | 39.42044 | -107.15571 | 9425 ft | 95 kts | 301° |
| 2026-04-22 01:10 | 39.42476 | -107.16224 | 9452 ft | 95 kts | 302° |
| 2026-04-22 01:10 | 39.42923 | -107.16861 | 9440 ft | 98 kts | 304° |
| 2026-04-22 01:10 | 39.43389 | -107.17494 | 9473 ft | 98 kts | 309° |
| 2026-04-22 01:11 | 39.43934 | -107.18039 | 9530 ft | 98 kts | 315° |
| 2026-04-22 01:11 | 39.44479 | -107.18562 | 9522 ft | 99 kts | 314° |
| 2026-04-22 01:11 | 39.45018 | -107.19119 | 9581 ft | 100 kts | 311° |
| 2026-04-22 01:11 | 39.45555 | -107.19692 | 9656 ft | 99 kts | 310° |
| 2026-04-22 01:12 | 39.46075 | -107.20251 | 9715 ft | 96 kts | 305° |
| 2026-04-22 01:12 | 39.46509 | -107.20926 | 9742 ft | 96 kts | 297° |
| 2026-04-22 01:12 | 39.46865 | -107.21628 | 9813 ft | 93 kts | 288° |
| 2026-04-22 01:12 | 39.47127 | -107.22385 | 9882 ft | 90 kts | 284° |
| 2026-04-22 01:13 | 39.47357 | -107.23138 | 9928 ft | 91 kts | 282° |
| 2026-04-22 01:13 | 39.47609 | -107.23907 | 9946 ft | 93 kts | 287° |
| 2026-04-22 01:13 | 39.47895 | -107.24660 | 9965 ft | 94 kts | 288° |
| 2026-04-22 01:13 | 39.48174 | -107.25424 | 9989 ft | 93 kts | 284° |
| 2026-04-22 01:14 | 39.48424 | -107.26196 | 10013 ft | 94 kts | 285° |
| 2026-04-22 01:14 | 39.48803 | -107.26918 | 10028 ft | 99 kts | 301° |
| 2026-04-22 01:14 | 39.49248 | -107.27576 | 10059 ft | 98 kts | 303° |
| 2026-04-22 01:14 | 39.49727 | -107.28214 | 10035 ft | 99 kts | 307° |
| 2026-04-22 01:15 | 39.50200 | -107.28874 | 9981 ft | 99 kts | 292° |
| 2026-04-22 01:15 | 39.50316 | -107.29700 | 9874 ft | 91 kts | 256° |
| 2026-04-22 01:15 | 39.50141 | -107.30457 | 9846 ft | 86 kts | 240° |
| 2026-04-22 01:15 | 39.49817 | -107.31084 | 9814 ft | 83 kts | 230° |
| 2026-04-22 01:16 | 39.49419 | -107.31621 | 9780 ft | 82 kts | 216° |
| 2026-04-22 01:16 | 39.48881 | -107.31881 | 9666 ft | 91 kts | 186° |
| 2026-04-22 01:16 | 39.48248 | -107.31652 | 9576 ft | 94 kts | 164° |
| 2026-04-22 01:16 | 39.47645 | -107.31356 | 9496 ft | 91 kts | 170° |
| 2026-04-22 01:17 | 39.47000 | -107.31121 | 9280 ft | 98 kts | 171° |
| 2026-04-22 01:17 | 39.46347 | -107.30847 | 9070 ft | 101 kts | 164° |
| 2026-04-22 01:17 | 39.45853 | -107.30155 | 8805 ft | 117 kts | 114° |
| 2026-04-22 01:17 | 39.45824 | -107.29120 | 8665 ft | 113 kts | 84° |
| 2026-04-22 01:18 | 39.46149 | -107.28164 | 8464 ft | 120 kts | 47° |
| 2026-04-22 01:18 | 39.46834 | -107.27618 | 8255 ft | 116 kts | 13° |
| 2026-04-22 01:18 | 39.47599 | -107.27545 | 8105 ft | 106 kts | 346° |
| 2026-04-22 01:18 | 39.48307 | -107.27827 | 7962 ft | 106 kts | 324° |
| 2026-04-22 01:19 | 39.48912 | -107.28255 | 7917 ft | 94 kts | 320° |
| 2026-04-22 01:19 | 39.49466 | -107.28716 | 7754 ft | 97 kts | 320° |
| 2026-04-22 01:19 | 39.50048 | -107.29159 | 7426 ft | 97 kts | 323° |
| 2026-04-22 01:19 | 39.50512 | -107.29731 | 7092 ft | 90 kts | 288° |
| 2026-04-22 01:20 | 39.50443 | -107.30501 | 6889 ft | 92 kts | 243° |
| 2026-04-22 01:20 | 39.50075 | -107.31151 | 6634 ft | 92 kts | 206° |
| 2026-04-22 01:20 | 39.49445 | -107.31114 | 6528 ft | 89 kts | 166° |
| 2026-04-22 01:20 | 39.48932 | -107.30720 | 6390 ft | 85 kts | 133° |
| 2026-04-22 01:21 | 39.48985 | -107.30013 | 6284 ft | 81 kts | 33° |
| 2026-04-22 01:21 | 39.49492 | -107.30095 | 6093 ft | 84 kts | 313° |
| 2026-04-22 01:21 | 39.49983 | -107.30525 | 5918 ft | 86 kts | 330° |
| 2026-04-22 01:21 | 39.50465 | -107.30833 | 5858 ft | 65 kts | 330° |
| 2026-04-22 01:22 | 39.50774 | -107.31024 | 5859 ft | 27 kts | 331° |
| 2026-04-22 01:22 | 39.50937 | -107.31130 | 5860 ft | 26 kts | 333° |
| 2026-04-22 01:22 | 39.51008 | -107.31153 | 5863 ft | 7 kts | 55° |
| 2026-04-22 01:22 | 39.51031 | -107.31121 | 5862 ft | 0 kts | 326° |
| 2026-04-22 01:31 | 39.51034 | -107.31128 | 5865 ft | 3 kts | 268° |
| 2026-04-22 01:31 | 39.50999 | -107.31164 | 5863 ft | 10 kts | 196° |
| 2026-04-22 01:31 | 39.50842 | -107.31071 | 5859 ft | 45 kts | 154° |
| 2026-04-22 01:31 | 39.50451 | -107.30820 | 5874 ft | 75 kts | 158° |
| 2026-04-22 01:32 | 39.49943 | -107.30548 | 5957 ft | 79 kts | 165° |
| 2026-04-22 01:32 | 39.49409 | -107.30300 | 6020 ft | 86 kts | 163° |
| 2026-04-22 01:32 | 39.48852 | -107.30189 | 6186 ft | 77 kts | 180° |
| 2026-04-22 01:32 | 39.48342 | -107.30149 | 6337 ft | 74 kts | 153° |
| 2026-04-22 01:33 | 39.48330 | -107.29539 | 6434 ft | 90 kts | 28° |
| 2026-04-22 01:33 | 39.48955 | -107.29648 | 6407 ft | 100 kts | 334° |
| 2026-04-22 01:33 | 39.49630 | -107.29864 | 6577 ft | 97 kts | 346° |
| 2026-04-22 01:33 | 39.50303 | -107.30027 | 6723 ft | 99 kts | 344° |
| 2026-04-22 01:34 | 39.50938 | -107.30257 | 6922 ft | 92 kts | 330° |
| 2026-04-22 01:34 | 39.51512 | -107.30597 | 7144 ft | 92 kts | 334° |
| 2026-04-22 01:34 | 39.52121 | -107.30924 | 7302 ft | 96 kts | 328° |
| 2026-04-22 01:34 | 39.52700 | -107.31308 | 7346 ft | 93 kts | 324° |
| 2026-04-22 01:35 | 39.53344 | -107.31628 | 7449 ft | 100 kts | 338° |
| 2026-04-22 01:35 | 39.54023 | -107.31756 | 7659 ft | 99 kts | 358° |
| 2026-04-22 01:35 | 39.54672 | -107.31452 | 7812 ft | 100 kts | 33° |
| 2026-04-22 01:35 | 39.55182 | -107.30799 | 7877 ft | 105 kts | 55° |
| 2026-04-22 01:36 | 39.55525 | -107.30007 | 7985 ft | 102 kts | 71° |
| 2026-04-22 01:36 | 39.55715 | -107.29115 | 8118 ft | 96 kts | 81° |
| 2026-04-22 01:36 | 39.55817 | -107.28253 | 8236 ft | 103 kts | 88° |
| 2026-04-22 01:36 | 39.55894 | -107.27343 | 8337 ft | 101 kts | 91° |
| 2026-04-22 01:37 | 39.55881 | -107.26424 | 8324 ft | 102 kts | 99° |
| 2026-04-22 01:37 | 39.55778 | -107.25508 | 8397 ft | 103 kts | 100° |
| 2026-04-22 01:37 | 39.55820 | -107.24625 | 8615 ft | 99 kts | 78° |
| 2026-04-22 01:37 | 39.56042 | -107.23738 | 8681 ft | 104 kts | 75° |
| 2026-04-22 01:38 | 39.56235 | -107.22853 | 8773 ft | 105 kts | 75° |
| 2026-04-22 01:38 | 39.56493 | -107.21972 | 8757 ft | 107 kts | 68° |
| 2026-04-22 01:38 | 39.56871 | -107.21180 | 8835 ft | 101 kts | 57° |
| 2026-04-22 01:38 | 39.57329 | -107.20485 | 8815 ft | 96 kts | 52° |
| 2026-04-22 01:39 | 39.57760 | -107.19776 | 8804 ft | 104 kts | 53° |
| 2026-04-22 01:39 | 39.58221 | -107.19067 | 8950 ft | 101 kts | 50° |
| 2026-04-22 01:39 | 39.58678 | -107.18396 | 8889 ft | 100 kts | 58° |
| 2026-04-22 01:39 | 39.59136 | -107.17670 | 8877 ft | 103 kts | 54° |
| 2026-04-22 01:40 | 39.59560 | -107.16886 | 8872 ft | 109 kts | 58° |
| 2026-04-22 01:40 | 39.59955 | -107.16058 | 8796 ft | 107 kts | 58° |
| 2026-04-22 01:40 | 39.60380 | -107.15219 | 8746 ft | 113 kts | 58° |
| 2026-04-22 01:40 | 39.60805 | -107.14349 | 8753 ft | 113 kts | 59° |
| 2026-04-22 01:41 | 39.61203 | -107.13481 | 8782 ft | 111 kts | 59° |
| 2026-04-22 01:41 | 39.61601 | -107.12613 | 8810 ft | 113 kts | 60° |
| 2026-04-22 01:41 | 39.62000 | -107.11730 | 8836 ft | 116 kts | 61° |
| 2026-04-22 01:41 | 39.62397 | -107.10832 | 8820 ft | 113 kts | 62° |
| 2026-04-22 01:42 | 39.62780 | -107.09955 | 8827 ft | 111 kts | 63° |
| 2026-04-22 01:42 | 39.63159 | -107.09078 | 8871 ft | 112 kts | 63° |
| 2026-04-22 01:42 | 39.63541 | -107.08178 | 8906 ft | 115 kts | 63° |
| 2026-04-22 01:42 | 39.63770 | -107.07550 | 8916 ft | 116 kts | 72° |
| 2026-04-22 01:43 | 39.63994 | -107.06584 | 8934 ft | 113 kts | 79° |
| 2026-04-22 01:43 | 39.64174 | -107.05532 | 8852 ft | 124 kts | 81° |
| 2026-04-22 01:43 | 39.64288 | -107.04421 | 8690 ft | 123 kts | 88° |
| 2026-04-22 01:43 | 39.64292 | -107.03327 | 8703 ft | 122 kts | 93° |
| 2026-04-22 01:44 | 39.64305 | -107.02212 | 8625 ft | 125 kts | 89° |
| 2026-04-22 01:44 | 39.64409 | -107.01102 | 8566 ft | 123 kts | 79° |
| 2026-04-22 01:44 | 39.64476 | -107.00017 | 8436 ft | 120 kts | 105° |
| 2026-04-22 01:44 | 39.64142 | -106.99111 | 8324 ft | 112 kts | 127° |
| 2026-04-22 01:45 | 39.63751 | -106.98244 | 8225 ft | 111 kts | 124° |
| 2026-04-22 01:45 | 39.63316 | -106.97453 | 7970 ft | 105 kts | 143° |
| 2026-04-22 01:45 | 39.62705 | -106.96964 | 7761 ft | 101 kts | 165° |
| 2026-04-22 01:45 | 39.62074 | -106.96746 | 7772 ft | 95 kts | 172° |
| 2026-04-22 01:46 | 39.61563 | -106.96152 | 7839 ft | 103 kts | 128° |
| 2026-04-22 01:46 | 39.61456 | -106.95227 | 7967 ft | 107 kts | 84° |
| 2026-04-22 01:46 | 39.61614 | -106.94282 | 7982 ft | 108 kts | 76° |
| 2026-04-22 01:46 | 39.61844 | -106.93350 | 7984 ft | 108 kts | 73° |
| 2026-04-22 01:47 | 39.62119 | -106.92414 | 7878 ft | 111 kts | 69° |
| 2026-04-22 01:47 | 39.62403 | -106.91518 | 7861 ft | 104 kts | 70° |
| 2026-04-22 01:47 | 39.62663 | -106.90658 | 7845 ft | 104 kts | 71° |
| 2026-04-22 01:47 | 39.62908 | -106.89831 | 7804 ft | 96 kts | 71° |
| 2026-04-22 01:48 | 39.63142 | -106.89006 | 7632 ft | 96 kts | 73° |
| 2026-04-22 01:48 | 39.63370 | -106.88185 | 7411 ft | 100 kts | 71° |
| 2026-04-22 01:48 | 39.63703 | -106.87434 | 7135 ft | 92 kts | 46° |
| 2026-04-22 01:48 | 39.64267 | -106.87089 | 7049 ft | 86 kts | 8° |
| 2026-04-22 01:49 | 39.64839 | -106.87108 | 7049 ft | 80 kts | 335° |
| 2026-04-22 01:49 | 39.65204 | -106.87615 | 7181 ft | 78 kts | 284° |
| 2026-04-22 01:49 | 39.65214 | -106.88321 | 7128 ft | 81 kts | 261° |
| 2026-04-22 01:49 | 39.65106 | -106.89020 | 7223 ft | 81 kts | 258° |
| 2026-04-22 01:50 | 39.64997 | -106.89766 | 7211 ft | 86 kts | 259° |
| 2026-04-22 01:50 | 39.64886 | -106.90501 | 7204 ft | 80 kts | 258° |
| 2026-04-22 01:50 | 39.64801 | -106.91237 | 7115 ft | 83 kts | 259° |
| 2026-04-22 01:50 | 39.64737 | -106.91982 | 7106 ft | 82 kts | 263° |
| 2026-04-22 01:51 | 39.64692 | -106.92710 | 7098 ft | 79 kts | 261° |
| 2026-04-22 01:51 | 39.64523 | -106.93355 | 7000 ft | 76 kts | 229° |
| 2026-04-22 01:51 | 39.64017 | -106.93568 | 7074 ft | 73 kts | 189° |
| 2026-04-22 01:51 | 39.63488 | -106.93601 | 7102 ft | 78 kts | 186° |
| 2026-04-22 01:52 | 39.63009 | -106.93260 | 7183 ft | 96 kts | 123° |
| 2026-04-22 01:52 | 39.62985 | -106.92379 | 7257 ft | 100 kts | 82° |
| 2026-04-22 01:52 | 39.63159 | -106.91528 | 7358 ft | 95 kts | 75° |
| 2026-04-22 01:52 | 39.63312 | -106.90694 | 7337 ft | 96 kts | 83° |
| 2026-04-22 01:53 | 39.63410 | -106.89875 | 7347 ft | 89 kts | 83° |
| 2026-04-22 01:53 | 39.63556 | -106.89092 | 7216 ft | 90 kts | 49° |
| 2026-04-22 01:53 | 39.64119 | -106.88873 | 7078 ft | 91 kts | 331° |
| 2026-04-22 01:53 | 39.64457 | -106.89515 | 6776 ft | 89 kts | 272° |
| 2026-04-22 01:54 | 39.64424 | -106.90285 | 6585 ft | 80 kts | 263° |
| 2026-04-22 01:54 | 39.64351 | -106.90921 | 6535 ft | 64 kts | 264° |
| 2026-04-22 01:54 | 39.64295 | -106.91433 | 6513 ft | 51 kts | 263° |
| 2026-04-22 01:54 | 39.64250 | -106.91834 | 6498 ft | 34 kts | 260° |
| 2026-04-22 01:55 | 39.64224 | -106.92090 | 6489 ft | 28 kts | 261° |
| 2026-04-22 01:55 | 39.64170 | -106.92275 | 6485 ft | 18 kts | 203° |
| 2026-04-22 01:55 | 39.64101 | -106.92246 | 6487 ft | 8 kts | 103° |
| 2026-04-22 01:55 | 39.64101 | -106.92178 | 6489 ft | 8 kts | 82° |
| 2026-04-22 01:56 | 39.64109 | -106.92105 | 6491 ft | 9 kts | 82° |
| 2026-04-22 01:56 | 39.64119 | -106.92021 | 6493 ft | 10 kts | 79° |
| 2026-04-22 01:56 | 39.64126 | -106.91922 | 6496 ft | 11 kts | 113° |
| 2026-04-22 01:56 | 39.64049 | -106.91899 | 6496 ft | 14 kts | 188° |
| 2026-04-22 01:57 | 39.64032 | -106.91920 | 6496 ft | 0 kts | 327° |